153-й AP3

Карта отелей и гостиниц, располагающихся рядом с аэропортом 153-й AP3 :

153-й AP3
Артем
Приморский край 43° 23' 57.264" N, 132° 12' 16.596" E
153-й AP3
Артем
Приморский край 43° 23' 57.264" N, 132° 12' 16.596" E
Код аэродрома ИКАО
HHC4
Код аэродрома RU
ХХЦ4
Координаты
N43.39924° E132.20461°
Превышение над уровнем моря
21
Основная полоса
10/28
Курс магнитный
097,8/277,8
Длина основной ВПП
44
Ширина основной ВПП
44
Покрытие основной ВПП
Твёрдое
Освещение ВПП
Нет
Тип: 
Вертодром
Класс аэродрома: 
Принадлежность: 
ЭА
Статус: 
Действующий
Сайт: 
E-mail аэродрома: 
Страна: 
Россия
Регион: 
Приморский край
Город: 
Артем
Дополнительная информация: 
Владелец ПП: нет данных. Имеет круглую форму. Маркирована не нормативно.


Найти трансфер

С помощью этой формы Вы можете найти трансфер из аэропорта 153-й AP3 в город, аэропорт или вокзал:

Погода в аэропортах:

Авиационная погода в Каяани

Регион: 
Погода METAR: 
EFKI 291020Z AUTO 02006KT 340V080 9999 -SHRA SCT027 //////CB 14/11 Q1005
Время наблюдения
2022-05-29T10:20:00Z
Температура C
14.0
Точка росы
11.0
Направление ветра
20
Скорость ветра (узлы)
6
Метео видимость
6.21
Облачность
SCT
Нижняя граница облачности (футы)
2700
Явления погоды
-SHRA
Условия полета
VFR
SCT – разбросанная отдельная облачность;
-SHRA - слабый ливневой дождь;

Авиационная погода в аэропорту Бесовец

Регион: 
Погода METAR: 
ULPB 291030Z VRB01MPS 9999 -RA SCT016 OVC043 14/12 Q1003 R19/09//60 NOSIG RMK QFE748/0998
Время наблюдения
2022-05-29T10:30:00Z
Температура C
14.0
Точка росы
12.0
Направление ветра
0
Скорость ветра (узлы)
2
Метео видимость
6.21
Облачность
SCT
OVC
Нижняя граница облачности (футы)
1600
4300
Явления погоды
-RA
Условия полета
VFR
Аэропорт подробнее: 
SCT – разбросанная отдельная облачность; OVC – сплошная облачность;
-RA - слабый дождь;

Авиационная погода в Нижнем Новгороде

Регион: 
Погода METAR: 
UWGG 291030Z 22007MPS 9999 TS BKN040CB 16/05 Q1010 R18L/090070 NOSIG
Время наблюдения
2022-05-29T10:30:00Z
Температура C
16.0
Точка росы
5.0
Направление ветра
220
Скорость ветра (узлы)
14
Метео видимость
6.21
Облачность
BKN
Нижняя граница облачности (футы)
4000
Явления погоды
TS
Условия полета
VFR
Аэропорт подробнее: 
BKN – значительная (рассеянная, разорванная) облачность;

Авиационная погода в Богашево

Регион: 
Погода METAR: 
UNTT 291030Z 22002MPS 9999 -RA OVC048 16/11 Q1010 R21/190055 NOSIG RMK QFE742
Время наблюдения
2022-05-29T10:30:00Z
Температура C
16.0
Точка росы
11.0
Направление ветра
220
Скорость ветра (узлы)
4
Метео видимость
6.21
Облачность
OVC
Нижняя граница облачности (футы)
4800
Явления погоды
-RA
Условия полета
VFR
Аэропорт подробнее: 
OVC – сплошная облачность;
-RA - слабый дождь;